createdAt,value
2023-05-08T00:00:58.762Z,13.40
2023-05-08T00:03:29.071Z,13.51
2023-05-08T00:05:57.897Z,13.70
2023-05-08T00:08:26.832Z,13.73
2023-05-08T00:10:55.411Z,13.59
2023-05-08T00:13:24.187Z,13.50
2023-05-08T00:15:54.344Z,13.59
2023-05-08T00:18:23.004Z,13.70
2023-05-08T00:20:52.940Z,13.59
2023-05-08T00:23:22.354Z,13.65
2023-05-08T00:25:51.044Z,13.63
2023-05-08T00:28:19.609Z,13.43
2023-05-08T00:30:48.607Z,13.53
2023-05-08T00:33:17.655Z,13.65
2023-05-08T00:35:46.527Z,13.42
2023-05-08T00:38:17.134Z,13.36
2023-05-08T00:40:46.124Z,13.54
2023-05-08T00:43:15.040Z,13.60
2023-05-08T00:45:44.022Z,13.58
2023-05-08T00:48:12.673Z,13.53
2023-05-08T00:50:42.442Z,13.32
2023-05-08T00:53:13.124Z,13.32
2023-05-08T00:55:43.440Z,13.22
2023-05-08T00:58:12.970Z,13.21
2023-05-08T01:00:43.217Z,12.95
2023-05-08T01:03:13.257Z,13.16
2023-05-08T01:05:42.343Z,13.18
2023-05-08T01:08:11.172Z,13.02
2023-05-08T01:10:48.170Z,13.06
2023-05-08T01:13:28.768Z,12.58
2023-05-08T01:16:03.393Z,12.72
2023-05-08T01:18:38.108Z,13.02
2023-05-08T01:21:14.426Z,12.89
2023-05-08T01:23:58.173Z,12.96
2023-05-08T01:27:18.106Z,12.94
2023-05-08T01:30:18.041Z,13.04
2023-05-08T01:32:52.468Z,12.88
2023-05-08T01:35:25.476Z,12.81
2023-05-08T01:37:59.694Z,12.68
2023-05-08T01:40:34.685Z,12.67
2023-05-08T01:43:14.152Z,12.61
2023-05-08T01:45:46.969Z,12.40
2023-05-08T01:48:20.557Z,12.38
2023-05-08T01:50:50.895Z,12.44
2023-05-08T01:53:27.175Z,12.54
2023-05-08T01:56:01.589Z,12.38
2023-05-08T01:58:32.077Z,12.38
2023-05-08T02:01:03.279Z,12.38
2023-05-08T02:03:35.857Z,12.47
2023-05-08T02:06:04.902Z,12.60
2023-05-08T02:08:35.066Z,12.48
2023-05-08T02:11:08.073Z,12.42
2023-05-08T02:13:37.565Z,12.42
2023-05-08T02:16:08.483Z,12.52
2023-05-08T02:18:40.140Z,12.49
2023-05-08T02:21:10.412Z,12.29
2023-05-08T02:23:39.660Z,12.16
2023-05-08T02:26:08.844Z,12.20
2023-05-08T02:28:38.020Z,12.35
2023-05-08T02:31:07.186Z,12.17
2023-05-08T02:33:36.100Z,12.35
2023-05-08T02:36:07.502Z,12.15
2023-05-08T02:38:36.599Z,11.92
2023-05-08T02:41:07.120Z,12.09
2023-05-08T02:43:36.125Z,12.10
2023-05-08T02:46:11.834Z,11.93
2023-05-08T02:48:48.249Z,12.01
2023-05-08T02:51:25.265Z,11.99
2023-05-08T02:53:59.908Z,12.10
2023-05-08T02:56:37.603Z,11.93
2023-05-08T02:59:16.760Z,11.83
2023-05-08T03:01:52.010Z,12.07
2023-05-08T03:04:30.984Z,11.84
2023-05-08T03:07:02.316Z,11.86
2023-05-08T03:09:43.620Z,11.70
2023-05-08T03:12:16.586Z,11.74
2023-05-08T03:14:48.528Z,11.48
2023-05-08T03:17:18.432Z,11.73
2023-05-08T03:19:52.022Z,11.81
2023-05-08T03:22:24.404Z,11.78
2023-05-08T03:24:54.958Z,11.81
2023-05-08T03:27:25.144Z,12.09
2023-05-08T03:29:55.000Z,11.94
2023-05-08T03:32:28.266Z,12.04
2023-05-08T03:34:59.982Z,11.84
2023-05-08T03:37:30.591Z,11.76
2023-05-08T03:39:59.498Z,11.91
2023-05-08T03:42:28.792Z,11.72
2023-05-08T03:44:58.888Z,11.71
2023-05-08T03:47:28.932Z,11.65
2023-05-08T03:49:58.655Z,11.74
2023-05-08T03:52:27.641Z,11.70
2023-05-08T03:54:57.625Z,11.87
2023-05-08T03:57:29.522Z,11.86
2023-05-08T04:00:04.356Z,11.85
2023-05-08T04:02:47.660Z,11.72
2023-05-08T04:05:22.619Z,11.78
2023-05-08T04:07:54.881Z,11.90
2023-05-08T04:10:33.452Z,11.81
2023-05-08T04:13:06.709Z,11.99
2023-05-08T04:15:42.306Z,12.22
2023-05-08T04:18:16.207Z,12.26
2023-05-08T04:20:48.470Z,12.13
2023-05-08T04:23:21.437Z,12.17
2023-05-08T04:25:53.572Z,12.08
2023-05-08T04:28:23.075Z,12.10
2023-05-08T04:30:52.901Z,12.21
2023-05-08T04:33:22.232Z,12.26
2023-05-08T04:35:51.493Z,12.17
2023-05-08T04:38:20.736Z,12.27
2023-05-08T04:40:49.592Z,12.42
2023-05-08T04:43:19.770Z,12.22
2023-05-08T04:45:48.817Z,12.14
2023-05-08T04:48:19.007Z,12.30
2023-05-08T04:50:48.016Z,12.62
2023-05-08T04:53:16.795Z,12.90
2023-05-08T04:55:45.407Z,13.06
2023-05-08T04:58:14.426Z,13.00
2023-05-08T05:00:44.599Z,12.86
2023-05-08T05:03:13.397Z,12.74
2023-05-08T05:05:42.494Z,13.05
2023-05-08T05:08:11.214Z,13.00
2023-05-08T05:10:40.092Z,13.05
2023-05-08T05:13:09.544Z,12.88
2023-05-08T05:15:38.301Z,12.99
2023-05-08T05:18:08.367Z,12.74
2023-05-08T05:20:37.709Z,13.19
2023-05-08T05:23:06.643Z,13.15
2023-05-08T05:25:36.084Z,13.29
2023-05-08T05:28:05.903Z,13.51
2023-05-08T05:30:34.896Z,13.59
2023-05-08T05:33:03.984Z,13.95
2023-05-08T05:35:34.698Z,13.98
2023-05-08T05:38:03.462Z,14.04
2023-05-08T05:40:32.185Z,13.96
2023-05-08T05:43:01.213Z,14.09
2023-05-08T05:45:33.785Z,14.06
2023-05-08T05:48:03.297Z,14.24
2023-05-08T05:50:34.788Z,14.32
2023-05-08T05:53:03.986Z,14.37
2023-05-08T05:55:32.728Z,14.59
2023-05-08T05:58:01.807Z,14.52
2023-05-08T06:00:31.362Z,14.76
2023-05-08T06:03:02.329Z,14.58
2023-05-08T06:05:31.751Z,14.45
2023-05-08T06:08:02.119Z,14.75
2023-05-08T06:10:30.963Z,14.60
2023-05-08T06:13:00.131Z,14.84
2023-05-08T06:15:29.116Z,14.09
2023-05-08T06:17:58.273Z,14.51
2023-05-08T06:20:27.442Z,14.51
2023-05-08T06:22:56.088Z,14.38
2023-05-08T06:25:28.177Z,13.95
2023-05-08T06:27:57.176Z,14.29
2023-05-08T06:30:25.883Z,14.11
2023-05-08T06:32:54.577Z,14.01
2023-05-08T06:35:23.939Z,14.02
2023-05-08T06:37:52.733Z,14.20
2023-05-08T06:40:21.666Z,13.50
2023-05-08T06:42:51.944Z,13.95
2023-05-08T06:45:20.813Z,14.02
2023-05-08T06:47:49.450Z,14.01
2023-05-08T06:50:20.103Z,14.24
2023-05-08T06:52:48.750Z,13.97
2023-05-08T06:55:17.438Z,14.29
2023-05-08T06:57:46.389Z,13.85
2023-05-08T07:00:17.008Z,13.98
2023-05-08T07:02:45.930Z,13.93
2023-05-08T07:05:15.247Z,13.95
2023-05-08T07:07:44.132Z,13.93
2023-05-08T07:10:13.137Z,14.17
2023-05-08T07:12:42.133Z,14.23
2023-05-08T07:15:24.789Z,14.56
2023-05-08T07:17:56.812Z,15.05
2023-05-08T07:20:25.757Z,15.21
2023-05-08T07:22:54.474Z,15.71
2023-05-08T07:25:26.228Z,15.01
2023-05-08T07:27:55.014Z,15.66
2023-05-08T07:30:24.149Z,15.21
2023-05-08T07:32:52.965Z,14.75
2023-05-08T07:35:23.115Z,14.89
2023-05-08T07:37:52.040Z,14.40
2023-05-08T07:40:20.799Z,14.99
2023-05-08T07:42:49.499Z,15.44
2023-05-08T07:45:18.440Z,15.01
2023-05-08T07:47:51.411Z,15.25
2023-05-08T07:50:20.485Z,15.81
2023-05-08T07:52:50.902Z,16.10
2023-05-08T07:55:20.662Z,15.84
2023-05-08T07:57:49.476Z,15.13
2023-05-08T08:00:18.911Z,15.77
2023-05-08T08:02:48.038Z,15.54
2023-05-08T08:05:17.085Z,15.61
2023-05-08T08:07:45.960Z,15.45
2023-05-08T08:10:16.299Z,15.52
2023-05-08T08:12:45.645Z,16.00
2023-05-08T08:15:14.431Z,15.83
2023-05-08T08:17:43.460Z,15.34
2023-05-08T08:20:13.107Z,15.13
2023-05-08T08:22:41.797Z,16.00
2023-05-08T08:25:11.185Z,16.34
2023-05-08T08:27:41.506Z,16.29
2023-05-08T08:30:17.466Z,15.73
2023-05-08T08:32:47.479Z,15.32
2023-05-08T08:35:16.894Z,15.86
2023-05-08T08:37:45.922Z,15.75
2023-05-08T08:40:14.868Z,16.00
2023-05-08T08:42:45.160Z,16.19
2023-05-08T08:45:14.253Z,16.50
2023-05-08T08:47:46.295Z,15.75
2023-05-08T08:50:16.347Z,15.92
2023-05-08T08:52:49.976Z,15.70
2023-05-08T08:55:19.561Z,16.09
2023-05-08T08:57:56.393Z,16.23
2023-05-08T09:00:29.660Z,15.99
2023-05-08T09:02:59.041Z,16.53
2023-05-08T09:05:27.783Z,16.75
2023-05-08T09:07:56.990Z,16.08
2023-05-08T09:10:26.177Z,16.30
2023-05-08T09:12:56.332Z,16.62
2023-05-08T09:15:25.148Z,16.78
2023-05-08T09:17:54.127Z,16.64
2023-05-08T09:20:22.825Z,16.70
2023-05-08T09:22:52.615Z,17.03
2023-05-08T09:25:21.832Z,16.71
2023-05-08T09:27:50.807Z,16.77
2023-05-08T09:30:20.836Z,17.44
2023-05-08T09:32:50.034Z,16.96
2023-05-08T09:35:18.790Z,16.81
2023-05-08T09:37:47.630Z,16.93
2023-05-08T09:40:18.264Z,17.40
2023-05-08T09:42:48.513Z,17.81
2023-05-08T09:45:29.373Z,17.80
2023-05-08T09:47:58.319Z,17.48
2023-05-08T09:50:27.844Z,17.62
2023-05-08T09:53:00.544Z,17.71
2023-05-08T09:55:29.595Z,17.89
2023-05-08T09:57:59.438Z,17.54
2023-05-08T10:00:30.312Z,18.33
2023-05-08T10:03:00.611Z,17.87
2023-05-08T10:05:31.794Z,18.19
2023-05-08T10:08:19.363Z,18.07
2023-05-08T10:10:48.124Z,18.72
2023-05-08T10:13:17.120Z,18.35
2023-05-08T10:15:49.444Z,18.36
2023-05-08T10:18:19.052Z,18.72
2023-05-08T10:20:49.544Z,18.24
2023-05-08T10:23:19.245Z,18.81
2023-05-08T10:25:49.670Z,19.29
2023-05-08T10:28:25.370Z,18.28
2023-05-08T10:30:57.534Z,18.37
2023-05-08T10:33:32.094Z,18.24
2023-05-08T10:36:01.420Z,18.75
2023-05-08T10:38:32.110Z,19.00
2023-05-08T10:41:01.600Z,18.71
2023-05-08T10:43:31.344Z,18.76
2023-05-08T10:46:05.956Z,18.75
2023-05-08T10:48:43.596Z,18.34
2023-05-08T10:51:16.295Z,18.68
2023-05-08T10:53:49.327Z,18.85
2023-05-08T10:56:18.041Z,19.19
2023-05-08T10:58:46.897Z,19.33
2023-05-08T11:01:17.919Z,18.79
2023-05-08T11:03:50.584Z,19.52
2023-05-08T11:06:40.548Z,19.29
2023-05-08T11:09:16.240Z,19.96
2023-05-08T11:11:53.987Z,19.71
2023-05-08T11:14:24.009Z,19.64
2023-05-08T11:17:08.409Z,19.96
2023-05-08T11:19:38.436Z,19.38
2023-05-08T11:22:18.225Z,19.27
2023-05-08T11:24:53.577Z,19.72
2023-05-08T11:28:04.533Z,20.21
2023-05-08T11:30:40.095Z,20.21
2023-05-08T11:33:17.400Z,19.94
2023-05-08T11:35:57.305Z,20.60
2023-05-08T11:38:28.341Z,20.11
2023-05-08T11:41:03.637Z,20.43
2023-05-08T11:43:54.174Z,20.81
2023-05-08T11:46:23.227Z,20.83
2023-05-08T11:48:59.930Z,21.04
2023-05-08T11:51:34.803Z,21.66
2023-05-08T11:54:03.835Z,21.91
2023-05-08T11:56:32.848Z,21.16
2023-05-08T11:59:05.529Z,21.74
2023-05-08T12:01:34.398Z,21.26
2023-05-08T12:04:06.381Z,21.85
2023-05-08T12:06:37.711Z,21.49
2023-05-08T12:09:12.276Z,22.03
2023-05-08T12:11:43.804Z,21.57
2023-05-08T12:14:15.055Z,21.77
2023-05-08T12:16:43.752Z,21.86
2023-05-08T12:19:14.749Z,21.87
2023-05-08T12:21:47.844Z,21.17
2023-05-08T12:24:22.740Z,21.77
2023-05-08T12:26:55.381Z,21.30
2023-05-08T12:29:25.140Z,21.89
2023-05-08T12:31:54.393Z,21.71
2023-05-08T12:34:25.038Z,22.18
2023-05-08T12:37:03.498Z,22.67
2023-05-08T12:39:37.489Z,21.80
2023-05-08T12:42:06.797Z,22.05
2023-05-08T12:44:35.495Z,22.55
2023-05-08T12:47:06.256Z,23.22
2023-05-08T12:49:38.997Z,23.95
2023-05-08T12:52:11.787Z,22.90
2023-05-08T12:54:42.240Z,22.55
2023-05-08T12:57:12.148Z,23.21
2023-05-08T12:59:41.951Z,23.80
2023-05-08T13:02:15.246Z,23.75
2023-05-08T13:04:45.917Z,23.56
2023-05-08T13:07:14.942Z,23.46
2023-05-08T13:09:57.478Z,23.99
2023-05-08T13:12:26.245Z,24.39
2023-05-08T13:14:55.288Z,23.80
2023-05-08T13:17:24.004Z,23.05
2023-05-08T13:19:54.138Z,22.94
2023-05-08T13:22:23.239Z,23.35
2023-05-08T13:24:51.874Z,23.08
2023-05-08T13:27:20.599Z,23.50
2023-05-08T13:29:49.493Z,23.17
2023-05-08T13:32:18.135Z,23.60
2023-05-08T13:34:50.169Z,23.60
2023-05-08T13:37:21.323Z,23.24
2023-05-08T13:39:49.935Z,24.02
2023-05-08T13:42:18.618Z,24.11
2023-05-08T13:44:47.459Z,24.45
2023-05-08T13:47:16.049Z,24.66
2023-05-08T13:49:46.984Z,24.42
2023-05-08T13:52:15.963Z,24.14
2023-05-08T13:54:46.018Z,24.83
2023-05-08T13:57:14.706Z,24.91
2023-05-08T13:59:43.620Z,24.46
2023-05-08T14:02:12.531Z,24.67
2023-05-08T14:04:41.757Z,24.67
2023-05-08T14:07:10.711Z,25.13
2023-05-08T14:09:47.047Z,25.30
2023-05-08T14:12:16.437Z,24.73
2023-05-08T14:14:45.080Z,24.35
2023-05-08T14:17:14.029Z,24.51
2023-05-08T14:19:42.966Z,24.62
2023-05-08T14:22:11.648Z,24.90
2023-05-08T14:24:40.461Z,24.55
2023-05-08T14:27:10.860Z,24.78
2023-05-08T14:29:42.508Z,24.40
2023-05-08T14:32:11.623Z,24.41
2023-05-08T14:34:40.255Z,24.45
2023-05-08T14:37:08.927Z,24.68
2023-05-08T14:39:38.549Z,25.72
2023-05-08T14:42:22.251Z,25.43
2023-05-08T14:44:55.887Z,25.24
2023-05-08T14:47:24.702Z,25.11
2023-05-08T14:49:54.485Z,24.83
2023-05-08T14:52:23.102Z,24.51
2023-05-08T14:54:53.627Z,24.44
2023-05-08T14:57:22.776Z,24.95
2023-05-08T14:59:55.338Z,24.84
2023-05-08T15:02:24.596Z,24.21
2023-05-08T15:04:53.327Z,24.48
2023-05-08T15:07:21.943Z,24.63
2023-05-08T15:09:50.852Z,24.03
2023-05-08T15:12:19.490Z,22.78
2023-05-08T15:14:48.130Z,22.75
2023-05-08T15:17:18.603Z,22.88
2023-05-08T15:19:47.304Z,22.93
2023-05-08T15:22:16.054Z,22.78
2023-05-08T15:24:45.174Z,23.05
2023-05-08T15:27:14.203Z,22.93
2023-05-08T15:29:42.816Z,23.17
2023-05-08T15:32:11.711Z,22.89
2023-05-08T15:34:41.735Z,23.49
2023-05-08T15:37:10.358Z,23.58
2023-05-08T15:39:39.638Z,23.43
2023-05-08T15:42:08.333Z,23.14
2023-05-08T15:44:54.023Z,22.70
2023-05-08T15:47:23.975Z,23.20
2023-05-08T15:49:54.019Z,23.75
2023-05-08T15:52:23.585Z,24.17
2023-05-08T15:54:52.232Z,24.49
2023-05-08T15:57:20.870Z,24.37
2023-05-08T15:59:49.851Z,24.31
2023-05-08T16:02:18.523Z,24.52
2023-05-08T16:04:47.530Z,25.21
2023-05-08T16:07:17.456Z,24.70
2023-05-08T16:09:49.932Z,24.41
2023-05-08T16:12:19.786Z,24.53
2023-05-08T16:14:48.477Z,25.12
2023-05-08T16:17:17.679Z,25.06
2023-05-08T16:19:46.539Z,25.22
2023-05-08T16:22:15.119Z,25.87
2023-05-08T16:24:45.045Z,25.48
2023-05-08T16:27:13.963Z,23.79
2023-05-08T16:29:42.985Z,24.92
2023-05-08T16:32:11.892Z,24.65
2023-05-08T16:34:40.774Z,23.43
2023-05-08T16:37:09.646Z,23.00
2023-05-08T16:39:38.400Z,22.03
2023-05-08T16:42:08.912Z,21.41
2023-05-08T16:44:37.622Z,21.76
2023-05-08T16:47:06.464Z,20.52
2023-05-08T16:49:35.494Z,20.64
2023-05-08T16:52:04.231Z,20.55
2023-05-08T16:54:34.919Z,20.62
2023-05-08T16:57:03.908Z,21.17
2023-05-08T16:59:33.938Z,20.87
2023-05-08T17:02:02.601Z,20.65
2023-05-08T17:04:31.695Z,20.18
2023-05-08T17:07:00.570Z,20.26
2023-05-08T17:09:29.732Z,19.72
2023-05-08T17:11:59.060Z,20.14
2023-05-08T17:14:27.805Z,19.76
2023-05-08T17:16:57.756Z,19.88
2023-05-08T17:19:26.682Z,19.64
2023-05-08T17:21:56.456Z,19.19
2023-05-08T17:24:26.199Z,19.35
2023-05-08T17:26:54.944Z,18.71
2023-05-08T17:29:23.577Z,17.74
2023-05-08T17:31:52.545Z,18.15
2023-05-08T17:34:23.198Z,17.88
2023-05-08T17:36:54.517Z,17.76
2023-05-08T17:39:23.978Z,18.07
2023-05-08T17:41:53.260Z,17.54
2023-05-08T17:44:21.949Z,17.70
2023-05-08T17:46:50.651Z,17.41
2023-05-08T17:49:19.690Z,17.32
2023-05-08T17:51:49.692Z,17.26
2023-05-08T17:54:18.337Z,17.18
2023-05-08T17:56:48.612Z,17.79
2023-05-08T17:59:17.160Z,17.39
2023-05-08T18:01:45.924Z,17.10
2023-05-08T18:04:14.872Z,16.37
2023-05-08T18:06:47.404Z,16.43
2023-05-08T18:09:17.884Z,16.27
2023-05-08T18:11:46.886Z,16.17
2023-05-08T18:14:15.696Z,16.04
2023-05-08T18:16:44.611Z,15.48
2023-05-08T18:19:13.208Z,15.06
2023-05-08T18:21:41.905Z,14.87
2023-05-08T18:24:13.177Z,14.39
2023-05-08T18:26:43.140Z,14.59
2023-05-08T18:29:12.547Z,14.55
2023-05-08T18:31:41.181Z,14.92
2023-05-08T18:34:09.860Z,14.71
2023-05-08T18:36:39.597Z,14.64
2023-05-08T18:39:08.212Z,14.17
2023-05-08T18:41:37.629Z,13.99
2023-05-08T18:44:10.389Z,13.86
2023-05-08T18:46:39.097Z,14.45
2023-05-08T18:49:08.199Z,14.06
2023-05-08T18:51:37.327Z,14.22
2023-05-08T18:54:06.119Z,14.06
2023-05-08T18:56:35.549Z,13.95
2023-05-08T18:59:04.617Z,14.04
2023-05-08T19:01:35.158Z,13.60
2023-05-08T19:04:04.598Z,14.06
2023-05-08T19:06:33.487Z,14.15
2023-05-08T19:09:02.032Z,13.66
2023-05-08T19:11:31.082Z,13.34
2023-05-08T19:13:59.461Z,13.83
2023-05-08T19:16:28.053Z,13.56
2023-05-08T19:18:58.815Z,13.46
2023-05-08T19:21:27.453Z,13.66
2023-05-08T19:23:55.784Z,13.59
2023-05-08T19:26:24.919Z,13.44
2023-05-08T19:28:53.572Z,13.27
2023-05-08T19:31:22.300Z,13.33
2023-05-08T19:33:50.963Z,13.51
2023-05-08T19:36:20.910Z,13.33
2023-05-08T19:38:49.937Z,12.76
2023-05-08T19:41:18.714Z,12.89
2023-05-08T19:43:47.142Z,13.42
2023-05-08T19:46:18.067Z,13.49
2023-05-08T19:48:46.897Z,13.42
2023-05-08T19:51:16.321Z,13.52
2023-05-08T19:53:50.290Z,13.47
2023-05-08T19:56:19.009Z,13.07
2023-05-08T19:58:48.484Z,13.49
2023-05-08T20:01:16.993Z,13.72
2023-05-08T20:03:45.616Z,13.47
2023-05-08T20:06:14.095Z,13.54
2023-05-08T20:08:42.464Z,13.73
2023-05-08T20:11:12.685Z,13.61
2023-05-08T20:13:41.108Z,13.12
2023-05-08T20:16:09.698Z,13.16
2023-05-08T20:18:38.368Z,12.98
2023-05-08T20:21:06.756Z,12.86
2023-05-08T20:23:35.057Z,12.35
2023-05-08T20:26:05.265Z,12.44
2023-05-08T20:28:35.019Z,12.62
2023-05-08T20:31:03.765Z,12.67
2023-05-08T20:33:32.060Z,12.31
2023-05-08T20:36:00.552Z,12.12
2023-05-08T20:38:29.186Z,12.45
2023-05-08T20:41:00.793Z,12.50
2023-05-08T20:43:29.894Z,12.22
2023-05-08T20:45:59.572Z,12.02
2023-05-08T20:48:27.989Z,11.95
2023-05-08T20:50:56.780Z,12.17
2023-05-08T20:53:25.153Z,12.19
2023-05-08T20:56:10.982Z,12.51
2023-05-08T20:58:39.616Z,12.98
2023-05-08T21:01:11.164Z,12.88
2023-05-08T21:03:40.457Z,12.29
2023-05-08T21:06:08.846Z,12.73
2023-05-08T21:08:37.167Z,12.25
2023-05-08T21:11:07.074Z,12.24
2023-05-08T21:13:35.633Z,11.85
2023-05-08T21:16:04.355Z,12.09
2023-05-08T21:18:34.391Z,11.77
2023-05-08T21:21:02.739Z,11.93
2023-05-08T21:23:31.091Z,11.79
2023-05-08T21:26:02.168Z,11.63
2023-05-08T21:28:30.440Z,11.80
2023-05-08T21:30:58.766Z,11.33
2023-05-08T21:33:27.408Z,11.76
2023-05-08T21:35:57.055Z,11.36
2023-05-08T21:38:25.466Z,11.52
2023-05-08T21:40:56.174Z,11.54
2023-05-08T21:43:24.545Z,11.62
2023-05-08T21:45:52.918Z,11.58
2023-05-08T21:48:23.029Z,11.31
2023-05-08T21:50:51.506Z,11.54
2023-05-08T21:53:21.233Z,11.64
2023-05-08T21:55:50.527Z,11.52
2023-05-08T21:58:18.789Z,11.46
2023-05-08T22:00:47.108Z,11.89
2023-05-08T22:03:15.981Z,11.72
2023-05-08T22:05:44.365Z,11.95
2023-05-08T22:08:12.684Z,11.86
2023-05-08T22:10:44.141Z,11.62
2023-05-08T22:13:13.162Z,11.55
2023-05-08T22:15:41.772Z,11.37
2023-05-08T22:18:10.189Z,11.60
2023-05-08T22:20:38.587Z,11.72
2023-05-08T22:23:07.226Z,11.67
2023-05-08T22:25:35.585Z,11.97
2023-05-08T22:28:05.511Z,11.42
2023-05-08T22:30:34.095Z,11.53
2023-05-08T22:33:02.535Z,11.48
2023-05-08T22:35:30.884Z,11.68
2023-05-08T22:37:59.734Z,11.42
2023-05-08T22:40:28.079Z,11.99
2023-05-08T22:42:58.763Z,12.41
2023-05-08T22:45:28.826Z,12.05
2023-05-08T22:47:57.255Z,12.51
2023-05-08T22:50:25.604Z,11.86
2023-05-08T22:52:54.194Z,12.03
2023-05-08T22:55:24.669Z,12.02
2023-05-08T22:57:53.005Z,11.89
2023-05-08T23:00:21.892Z,11.82
2023-05-08T23:02:51.674Z,12.21
2023-05-08T23:05:20.111Z,11.89
2023-05-08T23:07:48.660Z,11.51
2023-05-08T23:10:17.054Z,12.21
2023-05-08T23:12:45.436Z,11.64
2023-05-08T23:15:14.485Z,11.49
2023-05-08T23:17:43.032Z,11.31
2023-05-08T23:20:13.348Z,11.64
2023-05-08T23:22:41.898Z,11.90
2023-05-08T23:25:10.643Z,11.65
2023-05-08T23:27:39.100Z,11.65
2023-05-08T23:30:08.333Z,11.59
2023-05-08T23:32:36.718Z,11.70
2023-05-08T23:35:05.396Z,11.14
2023-05-08T23:37:35.494Z,11.62
2023-05-08T23:40:03.868Z,11.36
2023-05-08T23:42:32.240Z,12.05
2023-05-08T23:45:00.830Z,11.99
2023-05-08T23:47:29.167Z,11.41
2023-05-08T23:49:57.456Z,11.90
2023-05-08T23:52:26.380Z,11.89
2023-05-08T23:54:56.222Z,11.77
2023-05-08T23:57:24.560Z,11.86
2023-05-08T23:59:53.143Z,12.25
